Elmhurst, IL (60126)

4:53 AM CDT on March 27, 2017 (GMT -0500)
Brynhaven | | Change Station

Elev 10 ft 41.89 °N, 87.92 °W | Updated 34 seconds ago

Overcast
Overcast
49.8 °F
Feels Like 50 °F
N
2.2
Wind Variable Wind from WSW

Today
High -- | Low -- °F
--% Chance of Precip.
Yesterday
High -- | Low -- °F
Precip. -- in
Pressure 29.88 in
Visibility 2.5 miles
Clouds Overcast 400 ft
Windchill 50 °F
Dew Point 50 °F
Humidity 99%
Rainfall 0.00 in
Snow Depth Not available.
6:42 AM 7:12 PM
Waning Crescent, 1% visible
SPECI KORD 270936Z 32006KT 2 1/2SM BR OVC004 10/09 A2988 RMK AO2 T01000089 $
Pressure 29.88 in
Visibility 2.5 miles
Clouds Overcast 400 ft
Windchill 50 °F
Dew Point 50 °F
Humidity 99%
Rainfall 0.00 in
Snow Depth Not available.
6:42 AM 7:12 PM
Waning Crescent, 1% visible
SPECI KORD 270936Z 32006KT 2 1/2SM BR OVC004 10/09 A2988 RMK AO2 T01000089 $

Get Severe Weather Alerts

Thanks for signing up!

Be on the lookout for a verification email in your inbox.

You'll start receiving the daily forecast at 8 AM.

×

10-Day Weather Forecast

Almanac

Astronomy

Mar. 27, 2017 Rise Set
Actual Time
Civil Twilight
Nautical Twilight
Astronomical Twilight
Moon
Length of Visible Light
Length of Day
Tomorrow will be .
, % of the Moon is Illuminated

Today's Extremes

State Highs State Lows

Community

WunderPhotos

Upload Photos

1,962,540 photos uploaded!

WunderBlog® & News

Nearby

Air Quality

  Air Quality AQ Index Pollutant
Not available.

Snow Depth

Station Depth Elevation

Earthquake Activity

City Distance Mag. Time & Date
Minimum magnitude displayed is 2.5.

Earthquake Activity

City Distance Mag. Time & Date
Minimum magnitude displayed is 2.5.

Coastal Water Temperatures

Place Temperature

Stations

Nearby Weather Stations

Station Location Temp. Windchill Dew Point Humidity Wind Precip. Elev Updated Type
                   

Watches & Warnings

There are currently no watches in effect.